sensor_id;sensor_type;location;lat;lon;timestamp;temperature;humidity
52415;DHT22;38340;52.964;6.086;2022-12-07T00:00:30;2.70;99.90
52415;DHT22;38340;52.964;6.086;2022-12-07T00:02:56;2.70;99.90
52415;DHT22;38340;52.964;6.086;2022-12-07T00:05:21;2.70;99.90
52415;DHT22;38340;52.964;6.086;2022-12-07T00:07:47;2.60;99.90
52415;DHT22;38340;52.964;6.086;2022-12-07T00:10:13;2.50;99.90
52415;DHT22;38340;52.964;6.086;2022-12-07T00:12:38;2.60;99.90
52415;DHT22;38340;52.964;6.086;2022-12-07T00:15:04;2.50;99.90
52415;DHT22;38340;52.964;6.086;2022-12-07T00:17:30;2.60;99.90
52415;DHT22;38340;52.964;6.086;2022-12-07T00:19:56;2.50;99.90
52415;DHT22;38340;52.964;6.086;2022-12-07T00:22:21;2.60;99.90
52415;DHT22;38340;52.964;6.086;2022-12-07T00:24:47;2.40;99.90
52415;DHT22;38340;52.964;6.086;2022-12-07T00:27:13;2.60;99.90
52415;DHT22;38340;52.964;6.086;2022-12-07T00:29:38;2.80;99.90
52415;DHT22;38340;52.964;6.086;2022-12-07T00:32:04;2.80;99.90
52415;DHT22;38340;52.964;6.086;2022-12-07T00:34:29;3.10;99.90
52415;DHT22;38340;52.964;6.086;2022-12-07T00:36:55;3.00;99.90
52415;DHT22;38340;52.964;6.086;2022-12-07T00:39:21;3.00;99.90
52415;DHT22;38340;52.964;6.086;2022-12-07T00:41:47;2.90;99.90
52415;DHT22;38340;52.964;6.086;2022-12-07T00:44:12;3.00;99.90
52415;DHT22;38340;52.964;6.086;2022-12-07T00:46:38;3.00;99.90
52415;DHT22;38340;52.964;6.086;2022-12-07T00:49:04;2.80;99.90
52415;DHT22;38340;52.964;6.086;2022-12-07T00:51:29;2.90;99.90
52415;DHT22;38340;52.964;6.086;2022-12-07T00:53:55;2.80;99.90
52415;DHT22;38340;52.964;6.086;2022-12-07T00:56:27;2.80;99.90
52415;DHT22;38340;52.964;6.086;2022-12-07T00:58:58;2.80;99.90
52415;DHT22;38340;52.964;6.086;2022-12-07T01:01:25;2.90;99.90
52415;DHT22;38340;52.964;6.086;2022-12-07T01:03:51;2.90;99.90
52415;DHT22;38340;52.964;6.086;2022-12-07T01:06:19;2.70;99.90
52415;DHT22;38340;52.964;6.086;2022-12-07T01:08:45;2.80;99.90
52415;DHT22;38340;52.964;6.086;2022-12-07T01:11:14;2.80;99.90
52415;DHT22;38340;52.964;6.086;2022-12-07T01:13:40;3.00;99.90
52415;DHT22;38340;52.964;6.086;2022-12-07T01:16:08;2.90;99.90
52415;DHT22;38340;52.964;6.086;2022-12-07T01:18:36;3.20;99.90
52415;DHT22;38340;52.964;6.086;2022-12-07T01:21:20;3.20;99.90
52415;DHT22;38340;52.964;6.086;2022-12-07T01:23:46;3.30;99.90
52415;DHT22;38340;52.964;6.086;2022-12-07T01:26:15;3.30;99.90
52415;DHT22;38340;52.964;6.086;2022-12-07T01:28:41;3.40;99.90
52415;DHT22;38340;52.964;6.086;2022-12-07T01:31:10;3.30;99.90
52415;DHT22;38340;52.964;6.086;2022-12-07T01:33:44;3.10;99.90
52415;DHT22;38340;52.964;6.086;2022-12-07T01:36:22;3.10;99.90
52415;DHT22;38340;52.964;6.086;2022-12-07T01:38:51;3.00;99.90
52415;DHT22;38340;52.964;6.086;2022-12-07T01:41:18;3.00;99.90
52415;DHT22;38340;52.964;6.086;2022-12-07T01:46:44;2.80;99.90
52415;DHT22;38340;52.964;6.086;2022-12-07T01:49:22;2.80;99.90
52415;DHT22;38340;52.964;6.086;2022-12-07T01:51:49;2.80;99.90
52415;DHT22;38340;52.964;6.086;2022-12-07T01:54:17;2.70;99.90
52415;DHT22;38340;52.964;6.086;2022-12-07T01:56:50;2.90;99.90
52415;DHT22;38340;52.964;6.086;2022-12-07T01:59:18;2.90;99.90
52415;DHT22;38340;52.964;6.086;2022-12-07T02:01:45;3.00;99.90
52415;DHT22;38340;52.964;6.086;2022-12-07T02:04:11;3.20;99.90
52415;DHT22;38340;52.964;6.086;2022-12-07T02:06:37;3.20;99.90
52415;DHT22;38340;52.964;6.086;2022-12-07T02:09:04;3.20;99.90
52415;DHT22;38340;52.964;6.086;2022-12-07T02:11:30;3.10;99.90
52415;DHT22;38340;52.964;6.086;2022-12-07T02:13:56;3.10;99.90
52415;DHT22;38340;52.964;6.086;2022-12-07T02:25:08;3.10;99.90
52415;DHT22;38340;52.964;6.086;2022-12-07T02:28:01;3.30;99.90
52415;DHT22;38340;52.964;6.086;2022-12-07T02:30:33;3.30;99.90
52415;DHT22;38340;52.964;6.086;2022-12-07T02:35:46;3.40;99.90
52415;DHT22;38340;52.964;6.086;2022-12-07T02:38:50;3.50;99.90
52415;DHT22;38340;52.964;6.086;2022-12-07T02:41:30;3.30;99.90
52415;DHT22;38340;52.964;6.086;2022-12-07T02:44:00;3.30;99.90
52415;DHT22;38340;52.964;6.086;2022-12-07T02:46:31;3.30;99.90
52415;DHT22;38340;52.964;6.086;2022-12-07T02:48:58;3.10;99.90
52415;DHT22;38340;52.964;6.086;2022-12-07T02:51:30;3.10;99.90
52415;DHT22;38340;52.964;6.086;2022-12-07T02:53:56;3.20;99.90
52415;DHT22;38340;52.964;6.086;2022-12-07T02:59:29;3.00;99.90
52415;DHT22;38340;52.964;6.086;2022-12-07T03:02:09;3.10;99.90
52415;DHT22;38340;52.964;6.086;2022-12-07T03:05:05;3.10;99.90
52415;DHT22;38340;52.964;6.086;2022-12-07T03:13:11;3.40;99.90
52415;DHT22;38340;52.964;6.086;2022-12-07T03:18:30;3.60;99.90
52415;DHT22;38340;52.964;6.086;2022-12-07T03:21:00;3.60;99.90
52415;DHT22;38340;52.964;6.086;2022-12-07T03:23:28;3.60;99.90
52415;DHT22;38340;52.964;6.086;2022-12-07T03:25:59;3.60;99.90
52415;DHT22;38340;52.964;6.086;2022-12-07T03:28:29;3.40;99.90
52415;DHT22;38340;52.964;6.086;2022-12-07T03:31:46;3.40;99.90
52415;DHT22;38340;52.964;6.086;2022-12-07T03:33:59;3.40;99.90
52415;DHT22;38340;52.964;6.086;2022-12-07T03:39:12;3.30;99.90
52415;DHT22;38340;52.964;6.086;2022-12-07T03:41:42;3.10;99.90
52415;DHT22;38340;52.964;6.086;2022-12-07T03:44:08;3.00;99.90
52415;DHT22;38340;52.964;6.086;2022-12-07T03:49:25;3.00;99.90
52415;DHT22;38340;52.964;6.086;2022-12-07T03:54:48;2.80;99.90
52415;DHT22;38340;52.964;6.086;2022-12-07T03:57:15;2.60;99.90
52415;DHT22;38340;52.964;6.086;2022-12-07T03:59:42;2.70;99.90
52415;DHT22;38340;52.964;6.086;2022-12-07T04:02:11;2.90;99.90
52415;DHT22;38340;52.964;6.086;2022-12-07T04:04:38;2.90;99.90
52415;DHT22;38340;52.964;6.086;2022-12-07T04:07:04;2.90;99.90
52415;DHT22;38340;52.964;6.086;2022-12-07T04:09:30;2.90;99.90
52415;DHT22;38340;52.964;6.086;2022-12-07T04:11:56;3.00;99.90
52415;DHT22;38340;52.964;6.086;2022-12-07T04:14:21;3.10;99.90
52415;DHT22;38340;52.964;6.086;2022-12-07T04:16:55;3.10;99.90
52415;DHT22;38340;52.964;6.086;2022-12-07T04:19:29;3.20;99.90
52415;DHT22;38340;52.964;6.086;2022-12-07T04:21:56;3.30;99.90
52415;DHT22;38340;52.964;6.086;2022-12-07T04:24:23;3.20;99.90
52415;DHT22;38340;52.964;6.086;2022-12-07T04:26:48;3.20;99.90
52415;DHT22;38340;52.964;6.086;2022-12-07T04:29:15;3.10;99.90
52415;DHT22;38340;52.964;6.086;2022-12-07T04:31:41;3.10;99.90
52415;DHT22;38340;52.964;6.086;2022-12-07T04:34:07;3.10;99.90
52415;DHT22;38340;52.964;6.086;2022-12-07T04:36:33;3.10;99.90
52415;DHT22;38340;52.964;6.086;2022-12-07T04:38:59;3.10;99.90
52415;DHT22;38340;52.964;6.086;2022-12-07T04:41:25;3.10;99.90
52415;DHT22;38340;52.964;6.086;2022-12-07T04:43:55;3.10;99.90
52415;DHT22;38340;52.964;6.086;2022-12-07T04:46:22;2.80;99.90
52415;DHT22;38340;52.964;6.086;2022-12-07T04:48:48;2.80;99.90
52415;DHT22;38340;52.964;6.086;2022-12-07T04:51:19;2.70;99.90
52415;DHT22;38340;52.964;6.086;2022-12-07T04:53:45;2.50;99.90
52415;DHT22;38340;52.964;6.086;2022-12-07T04:56:11;2.50;99.90
52415;DHT22;38340;52.964;6.086;2022-12-07T04:58:37;2.40;99.90
52415;DHT22;38340;52.964;6.086;2022-12-07T05:01:02;2.30;99.90
52415;DHT22;38340;52.964;6.086;2022-12-07T05:03:28;2.20;99.90
52415;DHT22;38340;52.964;6.086;2022-12-07T05:05:54;2.20;99.90
52415;DHT22;38340;52.964;6.086;2022-12-07T05:08:19;2.20;99.90
52415;DHT22;38340;52.964;6.086;2022-12-07T05:10:45;2.00;99.90
52415;DHT22;38340;52.964;6.086;2022-12-07T05:13:11;2.10;99.90
52415;DHT22;38340;52.964;6.086;2022-12-07T05:15:36;2.20;99.90
52415;DHT22;38340;52.964;6.086;2022-12-07T05:18:02;2.30;99.90
52415;DHT22;38340;52.964;6.086;2022-12-07T05:20:28;2.30;99.90
52415;DHT22;38340;52.964;6.086;2022-12-07T05:22:54;2.40;99.90
52415;DHT22;38340;52.964;6.086;2022-12-07T05:25:20;2.40;99.90
52415;DHT22;38340;52.964;6.086;2022-12-07T05:27:45;2.30;99.90
52415;DHT22;38340;52.964;6.086;2022-12-07T05:30:12;2.30;99.90
52415;DHT22;38340;52.964;6.086;2022-12-07T05:32:37;2.40;99.90
52415;DHT22;38340;52.964;6.086;2022-12-07T05:35:03;2.30;99.90
52415;DHT22;38340;52.964;6.086;2022-12-07T05:37:29;2.40;99.90
52415;DHT22;38340;52.964;6.086;2022-12-07T05:39:54;2.50;99.90
52415;DHT22;38340;52.964;6.086;2022-12-07T05:42:20;2.40;99.90
52415;DHT22;38340;52.964;6.086;2022-12-07T05:44:46;2.50;99.90
52415;DHT22;38340;52.964;6.086;2022-12-07T05:47:13;2.80;99.90
52415;DHT22;38340;52.964;6.086;2022-12-07T05:49:39;2.90;99.90
52415;DHT22;38340;52.964;6.086;2022-12-07T05:52:05;2.90;99.90
52415;DHT22;38340;52.964;6.086;2022-12-07T05:54:32;2.90;99.90
52415;DHT22;38340;52.964;6.086;2022-12-07T05:56:58;2.80;99.90
52415;DHT22;38340;52.964;6.086;2022-12-07T05:59:24;3.00;99.90
52415;DHT22;38340;52.964;6.086;2022-12-07T06:04:48;2.90;99.90
52415;DHT22;38340;52.964;6.086;2022-12-07T06:07:16;3.00;99.90
52415;DHT22;38340;52.964;6.086;2022-12-07T06:09:41;3.10;99.90
52415;DHT22;38340;52.964;6.086;2022-12-07T06:12:10;3.10;99.90
52415;DHT22;38340;52.964;6.086;2022-12-07T06:14:54;3.10;99.90
52415;DHT22;38340;52.964;6.086;2022-12-07T06:17:20;3.20;99.90
52415;DHT22;38340;52.964;6.086;2022-12-07T06:19:46;3.10;99.90
52415;DHT22;38340;52.964;6.086;2022-12-07T06:22:12;3.00;99.90
52415;DHT22;38340;52.964;6.086;2022-12-07T06:24:38;3.00;99.90
52415;DHT22;38340;52.964;6.086;2022-12-07T06:27:04;3.00;99.90
52415;DHT22;38340;52.964;6.086;2022-12-07T06:29:30;2.90;99.90
52415;DHT22;38340;52.964;6.086;2022-12-07T06:31:56;2.80;99.90
52415;DHT22;38340;52.964;6.086;2022-12-07T06:34:23;2.70;99.90
52415;DHT22;38340;52.964;6.086;2022-12-07T06:36:49;2.70;99.90
52415;DHT22;38340;52.964;6.086;2022-12-07T06:39:18;2.50;99.90
52415;DHT22;38340;52.964;6.086;2022-12-07T06:41:44;2.50;99.90
52415;DHT22;38340;52.964;6.086;2022-12-07T06:44:10;2.40;99.90
52415;DHT22;38340;52.964;6.086;2022-12-07T06:46:36;2.50;99.90
52415;DHT22;38340;52.964;6.086;2022-12-07T06:49:03;2.40;99.90
52415;DHT22;38340;52.964;6.086;2022-12-07T06:51:28;2.50;99.90
52415;DHT22;38340;52.964;6.086;2022-12-07T06:53:55;2.20;99.90
52415;DHT22;38340;52.964;6.086;2022-12-07T06:56:21;2.30;99.90
52415;DHT22;38340;52.964;6.086;2022-12-07T06:58:46;2.00;99.90
52415;DHT22;38340;52.964;6.086;2022-12-07T07:01:14;2.00;99.90
52415;DHT22;38340;52.964;6.086;2022-12-07T07:03:40;1.80;99.90
52415;DHT22;38340;52.964;6.086;2022-12-07T07:06:07;1.90;99.90
52415;DHT22;38340;52.964;6.086;2022-12-07T07:08:33;1.90;99.90
52415;DHT22;38340;52.964;6.086;2022-12-07T07:10:59;1.70;99.90
52415;DHT22;38340;52.964;6.086;2022-12-07T07:13:26;1.70;99.90
52415;DHT22;38340;52.964;6.086;2022-12-07T07:15:52;1.70;99.90
52415;DHT22;38340;52.964;6.086;2022-12-07T07:18:17;1.90;99.90
52415;DHT22;38340;52.964;6.086;2022-12-07T07:20:43;2.10;99.90
52415;DHT22;38340;52.964;6.086;2022-12-07T07:23:09;2.10;99.90
52415;DHT22;38340;52.964;6.086;2022-12-07T07:25:35;2.30;99.90
52415;DHT22;38340;52.964;6.086;2022-12-07T07:28:01;2.40;99.90
52415;DHT22;38340;52.964;6.086;2022-12-07T07:30:27;2.60;99.90
52415;DHT22;38340;52.964;6.086;2022-12-07T07:32:57;2.60;99.90
52415;DHT22;38340;52.964;6.086;2022-12-07T07:35:24;2.60;99.90
52415;DHT22;38340;52.964;6.086;2022-12-07T07:37:50;2.50;99.90
52415;DHT22;38340;52.964;6.086;2022-12-07T07:40:16;2.60;99.90
52415;DHT22;38340;52.964;6.086;2022-12-07T07:42:42;2.30;99.90
52415;DHT22;38340;52.964;6.086;2022-12-07T07:45:08;2.40;99.90
52415;DHT22;38340;52.964;6.086;2022-12-07T07:47:34;2.30;99.90
52415;DHT22;38340;52.964;6.086;2022-12-07T07:50:00;2.10;99.90
52415;DHT22;38340;52.964;6.086;2022-12-07T07:52:26;2.00;99.90
52415;DHT22;38340;52.964;6.086;2022-12-07T07:54:52;2.00;99.90
52415;DHT22;38340;52.964;6.086;2022-12-07T07:57:18;1.80;99.90
52415;DHT22;38340;52.964;6.086;2022-12-07T07:59:43;1.90;99.90
52415;DHT22;38340;52.964;6.086;2022-12-07T08:02:14;1.70;99.90
52415;DHT22;38340;52.964;6.086;2022-12-07T08:04:40;1.70;99.90
52415;DHT22;38340;52.964;6.086;2022-12-07T08:07:05;1.70;99.90
52415;DHT22;38340;52.964;6.086;2022-12-07T08:09:31;1.80;99.90
52415;DHT22;38340;52.964;6.086;2022-12-07T08:11:57;2.00;99.90
52415;DHT22;38340;52.964;6.086;2022-12-07T08:14:24;1.90;99.90
52415;DHT22;38340;52.964;6.086;2022-12-07T08:16:50;1.90;99.90
52415;DHT22;38340;52.964;6.086;2022-12-07T08:19:15;2.00;99.90
52415;DHT22;38340;52.964;6.086;2022-12-07T08:21:41;1.90;99.90
52415;DHT22;38340;52.964;6.086;2022-12-07T08:24:07;2.00;99.90
52415;DHT22;38340;52.964;6.086;2022-12-07T08:26:33;1.80;99.90
52415;DHT22;38340;52.964;6.086;2022-12-07T08:28:59;1.80;99.90
52415;DHT22;38340;52.964;6.086;2022-12-07T08:31:25;1.90;99.90
52415;DHT22;38340;52.964;6.086;2022-12-07T08:33:51;1.80;99.90
52415;DHT22;38340;52.964;6.086;2022-12-07T08:36:17;1.70;99.90
52415;DHT22;38340;52.964;6.086;2022-12-07T08:38:43;1.70;99.90
52415;DHT22;38340;52.964;6.086;2022-12-07T08:41:09;1.90;99.90
52415;DHT22;38340;52.964;6.086;2022-12-07T08:43:35;1.80;99.90
52415;DHT22;38340;52.964;6.086;2022-12-07T08:46:21;1.70;99.90
52415;DHT22;38340;52.964;6.086;2022-12-07T08:48:54;1.90;99.90
52415;DHT22;38340;52.964;6.086;2022-12-07T08:51:22;1.90;99.90
52415;DHT22;38340;52.964;6.086;2022-12-07T08:53:48;2.20;99.90
52415;DHT22;38340;52.964;6.086;2022-12-07T08:56:15;2.20;99.90
52415;DHT22;38340;52.964;6.086;2022-12-07T08:58:41;2.50;99.90
52415;DHT22;38340;52.964;6.086;2022-12-07T09:01:07;2.60;99.90
52415;DHT22;38340;52.964;6.086;2022-12-07T09:03:32;2.80;99.90
52415;DHT22;38340;52.964;6.086;2022-12-07T09:05:58;3.00;99.90
52415;DHT22;38340;52.964;6.086;2022-12-07T09:08:50;3.10;99.90
52415;DHT22;38340;52.964;6.086;2022-12-07T09:11:16;3.20;99.90
52415;DHT22;38340;52.964;6.086;2022-12-07T09:13:42;3.40;99.90
52415;DHT22;38340;52.964;6.086;2022-12-07T09:16:07;3.40;99.90
52415;DHT22;38340;52.964;6.086;2022-12-07T09:18:33;3.40;99.90
52415;DHT22;38340;52.964;6.086;2022-12-07T09:20:59;3.50;99.90
52415;DHT22;38340;52.964;6.086;2022-12-07T09:23:25;3.50;99.90
52415;DHT22;38340;52.964;6.086;2022-12-07T09:25:50;3.50;99.90
52415;DHT22;38340;52.964;6.086;2022-12-07T09:28:16;3.40;99.90
52415;DHT22;38340;52.964;6.086;2022-12-07T09:30:46;3.40;99.90
52415;DHT22;38340;52.964;6.086;2022-12-07T09:33:12;3.30;99.90
52415;DHT22;38340;52.964;6.086;2022-12-07T09:35:38;3.40;99.90
52415;DHT22;38340;52.964;6.086;2022-12-07T09:38:09;3.30;99.90
52415;DHT22;38340;52.964;6.086;2022-12-07T09:40:34;3.20;99.90
52415;DHT22;38340;52.964;6.086;2022-12-07T09:43:00;3.20;99.90
52415;DHT22;38340;52.964;6.086;2022-12-07T09:45:44;3.10;99.90
52415;DHT22;38340;52.964;6.086;2022-12-07T09:48:21;3.30;99.90
52415;DHT22;38340;52.964;6.086;2022-12-07T09:50:48;3.40;99.90
52415;DHT22;38340;52.964;6.086;2022-12-07T09:53:30;3.50;99.90
52415;DHT22;38340;52.964;6.086;2022-12-07T09:55:59;3.60;99.90
52415;DHT22;38340;52.964;6.086;2022-12-07T09:58:26;3.80;99.90
52415;DHT22;38340;52.964;6.086;2022-12-07T10:01:17;3.90;99.90
52415;DHT22;38340;52.964;6.086;2022-12-07T10:03:55;4.20;99.90
52415;DHT22;38340;52.964;6.086;2022-12-07T10:06:23;4.40;99.90
52415;DHT22;38340;52.964;6.086;2022-12-07T10:08:49;4.30;99.90
52415;DHT22;38340;52.964;6.086;2022-12-07T10:11:14;4.40;99.90
52415;DHT22;38340;52.964;6.086;2022-12-07T10:13:51;4.40;99.90
52415;DHT22;38340;52.964;6.086;2022-12-07T10:18:54;4.30;99.90
52415;DHT22;38340;52.964;6.086;2022-12-07T10:21:24;4.20;99.90
52415;DHT22;38340;52.964;6.086;2022-12-07T10:24:14;4.20;99.90
52415;DHT22;38340;52.964;6.086;2022-12-07T10:29:31;4.10;99.90
52415;DHT22;38340;52.964;6.086;2022-12-07T10:34:30;4.00;99.90
52415;DHT22;38340;52.964;6.086;2022-12-07T10:37:18;4.00;99.90
52415;DHT22;38340;52.964;6.086;2022-12-07T10:39:53;4.00;99.90
52415;DHT22;38340;52.964;6.086;2022-12-07T10:42:27;4.10;99.90
52415;DHT22;38340;52.964;6.086;2022-12-07T10:45:13;4.20;99.90
52415;DHT22;38340;52.964;6.086;2022-12-07T10:50:58;4.30;99.90
52415;DHT22;38340;52.964;6.086;2022-12-07T10:59:34;4.60;99.90
52415;DHT22;38340;52.964;6.086;2022-12-07T11:02:25;4.70;99.90
52415;DHT22;38340;52.964;6.086;2022-12-07T11:08:03;4.80;99.90
52415;DHT22;38340;52.964;6.086;2022-12-07T11:16:02;5.00;99.90
52415;DHT22;38340;52.964;6.086;2022-12-07T11:18:53;5.10;99.90
52415;DHT22;38340;52.964;6.086;2022-12-07T11:21:33;5.00;99.90
52415;DHT22;38340;52.964;6.086;2022-12-07T11:27:01;4.80;99.90
52415;DHT22;38340;52.964;6.086;2022-12-07T11:29:46;4.90;99.90
52415;DHT22;38340;52.964;6.086;2022-12-07T11:37:39;4.70;99.90
52415;DHT22;38340;52.964;6.086;2022-12-07T11:40:22;4.70;99.90
52415;DHT22;38340;52.964;6.086;2022-12-07T11:45:43;4.60;99.90
52415;DHT22;38340;52.964;6.086;2022-12-07T11:50:50;4.60;99.90
52415;DHT22;38340;52.964;6.086;2022-12-07T12:06:37;5.00;99.90
52415;DHT22;38340;52.964;6.086;2022-12-07T12:09:39;5.10;99.90
52415;DHT22;38340;52.964;6.086;2022-12-07T12:12:39;5.40;99.90
52415;DHT22;38340;52.964;6.086;2022-12-07T12:15:23;5.40;99.90
52415;DHT22;38340;52.964;6.086;2022-12-07T12:20:29;5.60;99.90
52415;DHT22;38340;52.964;6.086;2022-12-07T12:23:15;5.80;99.90
52415;DHT22;38340;52.964;6.086;2022-12-07T12:25:48;5.80;99.90
52415;DHT22;38340;52.964;6.086;2022-12-07T12:29:21;5.70;99.90
52415;DHT22;38340;52.964;6.086;2022-12-07T12:33:55;5.70;99.90
52415;DHT22;38340;52.964;6.086;2022-12-07T12:44:02;5.30;99.90
52415;DHT22;38340;52.964;6.086;2022-12-07T12:54:19;4.80;99.90
52415;DHT22;38340;52.964;6.086;2022-12-07T13:02:49;4.80;99.90
52415;DHT22;38340;52.964;6.086;2022-12-07T13:15:38;4.90;99.90
52415;DHT22;38340;52.964;6.086;2022-12-07T13:18:24;4.90;99.90
52415;DHT22;38340;52.964;6.086;2022-12-07T13:26:26;4.80;99.90
52415;DHT22;38340;52.964;6.086;2022-12-07T13:31:47;4.80;99.90
52415;DHT22;38340;52.964;6.086;2022-12-07T13:37:28;4.80;99.90
52415;DHT22;38340;52.964;6.086;2022-12-07T13:40:18;4.90;99.90
52415;DHT22;38340;52.964;6.086;2022-12-07T13:42:44;4.90;99.90
52415;DHT22;38340;52.964;6.086;2022-12-07T13:45:33;4.90;99.90
52415;DHT22;38340;52.964;6.086;2022-12-07T13:48:42;4.70;99.90
52415;DHT22;38340;52.964;6.086;2022-12-07T13:51:20;4.80;99.90
52415;DHT22;38340;52.964;6.086;2022-12-07T13:54:30;4.80;99.90
52415;DHT22;38340;52.964;6.086;2022-12-07T13:56:37;4.80;99.90
52415;DHT22;38340;52.964;6.086;2022-12-07T13:59:10;4.80;99.90
52415;DHT22;38340;52.964;6.086;2022-12-07T14:01:38;4.60;99.90
52415;DHT22;38340;52.964;6.086;2022-12-07T14:06:55;4.50;99.90
52415;DHT22;38340;52.964;6.086;2022-12-07T14:09:26;4.50;99.90
52415;DHT22;38340;52.964;6.086;2022-12-07T14:11:53;4.50;99.90
52415;DHT22;38340;52.964;6.086;2022-12-07T14:14:25;4.50;99.90
52415;DHT22;38340;52.964;6.086;2022-12-07T14:17:11;4.50;99.90
52415;DHT22;38340;52.964;6.086;2022-12-07T14:19:42;4.50;99.90
52415;DHT22;38340;52.964;6.086;2022-12-07T14:22:27;4.40;99.90
52415;DHT22;38340;52.964;6.086;2022-12-07T14:27:58;4.40;99.90
52415;DHT22;38340;52.964;6.086;2022-12-07T14:30:30;4.50;99.90
52415;DHT22;38340;52.964;6.086;2022-12-07T14:33:01;4.40;99.90
52415;DHT22;38340;52.964;6.086;2022-12-07T14:35:27;4.30;99.90
52415;DHT22;38340;52.964;6.086;2022-12-07T14:37:53;4.30;99.90
52415;DHT22;38340;52.964;6.086;2022-12-07T14:40:22;4.20;99.90
52415;DHT22;38340;52.964;6.086;2022-12-07T14:42:51;4.00;99.90
52415;DHT22;38340;52.964;6.086;2022-12-07T14:45:22;4.00;99.90
52415;DHT22;38340;52.964;6.086;2022-12-07T14:47:48;3.90;99.90
52415;DHT22;38340;52.964;6.086;2022-12-07T14:50:19;3.80;99.90
52415;DHT22;38340;52.964;6.086;2022-12-07T14:52:49;3.70;99.90
52415;DHT22;38340;52.964;6.086;2022-12-07T14:55:28;3.70;99.90
52415;DHT22;38340;52.964;6.086;2022-12-07T14:57:55;3.60;99.90
52415;DHT22;38340;52.964;6.086;2022-12-07T15:00:23;3.60;99.90
52415;DHT22;38340;52.964;6.086;2022-12-07T15:02:49;3.40;99.90
52415;DHT22;38340;52.964;6.086;2022-12-07T15:05:16;3.40;99.90
52415;DHT22;38340;52.964;6.086;2022-12-07T15:07:42;3.30;99.90
52415;DHT22;38340;52.964;6.086;2022-12-07T15:12:40;3.20;99.90
52415;DHT22;38340;52.964;6.086;2022-12-07T15:15:06;3.20;99.90
52415;DHT22;38340;52.964;6.086;2022-12-07T15:17:32;3.20;99.90
52415;DHT22;38340;52.964;6.086;2022-12-07T15:19:57;3.20;99.90
52415;DHT22;38340;52.964;6.086;2022-12-07T15:22:23;3.00;99.90
52415;DHT22;38340;52.964;6.086;2022-12-07T15:24:49;3.10;99.90
52415;DHT22;38340;52.964;6.086;2022-12-07T15:27:14;3.10;99.90
52415;DHT22;38340;52.964;6.086;2022-12-07T15:29:40;3.10;99.90
52415;DHT22;38340;52.964;6.086;2022-12-07T15:32:06;3.00;99.90
52415;DHT22;38340;52.964;6.086;2022-12-07T15:34:31;3.10;99.90
52415;DHT22;38340;52.964;6.086;2022-12-07T15:36:57;3.00;99.90
52415;DHT22;38340;52.964;6.086;2022-12-07T15:39:23;3.10;99.90
52415;DHT22;38340;52.964;6.086;2022-12-07T15:41:49;3.00;99.90
52415;DHT22;38340;52.964;6.086;2022-12-07T15:44:15;3.10;99.90
52415;DHT22;38340;52.964;6.086;2022-12-07T15:47:00;3.00;99.90
52415;DHT22;38340;52.964;6.086;2022-12-07T15:49:26;3.00;99.90
52415;DHT22;38340;52.964;6.086;2022-12-07T15:51:52;3.00;99.90
52415;DHT22;38340;52.964;6.086;2022-12-07T15:54:21;3.10;99.90
52415;DHT22;38340;52.964;6.086;2022-12-07T15:56:48;3.00;99.90
52415;DHT22;38340;52.964;6.086;2022-12-07T15:59:14;3.20;99.90
52415;DHT22;38340;52.964;6.086;2022-12-07T16:01:39;3.20;99.90
52415;DHT22;38340;52.964;6.086;2022-12-07T16:04:05;3.20;99.90
52415;DHT22;38340;52.964;6.086;2022-12-07T16:06:31;3.10;99.90
52415;DHT22;38340;52.964;6.086;2022-12-07T16:08:56;3.10;99.90
52415;DHT22;38340;52.964;6.086;2022-12-07T16:11:22;3.20;99.90
52415;DHT22;38340;52.964;6.086;2022-12-07T16:13:48;3.20;99.90
52415;DHT22;38340;52.964;6.086;2022-12-07T16:16:15;3.20;99.90
52415;DHT22;38340;52.964;6.086;2022-12-07T16:18:43;3.20;99.90
52415;DHT22;38340;52.964;6.086;2022-12-07T16:21:09;3.30;99.90
52415;DHT22;38340;52.964;6.086;2022-12-07T16:23:35;3.10;99.90
52415;DHT22;38340;52.964;6.086;2022-12-07T16:26:08;3.10;99.90
52415;DHT22;38340;52.964;6.086;2022-12-07T16:28:34;3.10;99.90
52415;DHT22;38340;52.964;6.086;2022-12-07T16:31:09;3.10;99.90
52415;DHT22;38340;52.964;6.086;2022-12-07T16:33:36;3.20;99.90
52415;DHT22;38340;52.964;6.086;2022-12-07T16:36:03;3.20;99.90
52415;DHT22;38340;52.964;6.086;2022-12-07T16:38:29;3.20;99.90
52415;DHT22;38340;52.964;6.086;2022-12-07T16:40:55;3.10;99.90
52415;DHT22;38340;52.964;6.086;2022-12-07T16:43:21;3.20;99.90
52415;DHT22;38340;52.964;6.086;2022-12-07T16:45:47;3.10;99.90
52415;DHT22;38340;52.964;6.086;2022-12-07T16:48:14;3.10;99.90
52415;DHT22;38340;52.964;6.086;2022-12-07T16:50:41;3.10;99.90
52415;DHT22;38340;52.964;6.086;2022-12-07T16:53:08;3.20;99.90
52415;DHT22;38340;52.964;6.086;2022-12-07T16:55:42;3.10;99.90
52415;DHT22;38340;52.964;6.086;2022-12-07T16:58:09;3.10;99.90
52415;DHT22;38340;52.964;6.086;2022-12-07T17:00:36;3.20;99.90
52415;DHT22;38340;52.964;6.086;2022-12-07T17:03:03;3.10;99.90
52415;DHT22;38340;52.964;6.086;2022-12-07T17:05:28;3.10;99.90
52415;DHT22;38340;52.964;6.086;2022-12-07T17:07:55;3.00;99.90
52415;DHT22;38340;52.964;6.086;2022-12-07T17:10:21;3.10;99.90
52415;DHT22;38340;52.964;6.086;2022-12-07T17:12:47;3.00;99.90
52415;DHT22;38340;52.964;6.086;2022-12-07T17:15:13;3.10;99.90
52415;DHT22;38340;52.964;6.086;2022-12-07T17:17:57;3.00;99.90
52415;DHT22;38340;52.964;6.086;2022-12-07T17:20:25;3.00;99.90
52415;DHT22;38340;52.964;6.086;2022-12-07T17:22:52;3.10;99.90
52415;DHT22;38340;52.964;6.086;2022-12-07T17:25:18;2.90;99.90
52415;DHT22;38340;52.964;6.086;2022-12-07T17:27:45;2.90;99.90
52415;DHT22;38340;52.964;6.086;2022-12-07T17:30:12;2.90;99.90
52415;DHT22;38340;52.964;6.086;2022-12-07T17:32:38;3.00;99.90
52415;DHT22;38340;52.964;6.086;2022-12-07T17:35:04;2.80;99.90
52415;DHT22;38340;52.964;6.086;2022-12-07T17:37:31;2.80;99.90
52415;DHT22;38340;52.964;6.086;2022-12-07T17:39:57;2.80;99.90
52415;DHT22;38340;52.964;6.086;2022-12-07T17:42:26;2.80;99.90
52415;DHT22;38340;52.964;6.086;2022-12-07T17:45:06;2.80;99.90
52415;DHT22;38340;52.964;6.086;2022-12-07T17:47:32;2.80;99.90
52415;DHT22;38340;52.964;6.086;2022-12-07T17:49:58;2.80;99.90
52415;DHT22;38340;52.964;6.086;2022-12-07T17:52:23;2.80;99.90
52415;DHT22;38340;52.964;6.086;2022-12-07T17:55:08;2.90;99.90
52415;DHT22;38340;52.964;6.086;2022-12-07T17:57:33;2.90;99.90
52415;DHT22;38340;52.964;6.086;2022-12-07T17:59:59;2.90;99.90
52415;DHT22;38340;52.964;6.086;2022-12-07T18:02:25;2.90;99.90
52415;DHT22;38340;52.964;6.086;2022-12-07T18:04:51;2.80;99.90
52415;DHT22;38340;52.964;6.086;2022-12-07T18:07:17;3.00;99.90
52415;DHT22;38340;52.964;6.086;2022-12-07T18:09:43;3.00;99.90
52415;DHT22;38340;52.964;6.086;2022-12-07T18:12:09;2.90;99.90
52415;DHT22;38340;52.964;6.086;2022-12-07T18:14:35;3.10;99.90
52415;DHT22;38340;52.964;6.086;2022-12-07T18:17:01;3.00;99.90
52415;DHT22;38340;52.964;6.086;2022-12-07T18:19:27;3.10;99.90
52415;DHT22;38340;52.964;6.086;2022-12-07T18:21:52;2.90;99.90
52415;DHT22;38340;52.964;6.086;2022-12-07T18:24:18;2.90;99.90